createdAt,value
2018-08-20T00:00:27.550Z,5.03
2018-08-20T00:02:55.490Z,4.60
2018-08-20T00:05:23.966Z,4.80
2018-08-20T00:07:51.666Z,5.17
2018-08-20T00:10:21.679Z,4.60
2018-08-20T00:12:48.542Z,4.50
2018-08-20T00:15:16.498Z,4.97
2018-08-20T00:17:43.451Z,5.03
2018-08-20T00:20:10.991Z,5.27
2018-08-20T00:22:37.866Z,4.30
2018-08-20T00:25:16.236Z,4.70
2018-08-20T00:27:43.680Z,4.80
2018-08-20T00:30:12.739Z,4.60
2018-08-20T00:32:43.191Z,4.50
2018-08-20T00:35:12.895Z,4.53
2018-08-20T00:37:51.163Z,5.33
2018-08-20T00:40:18.870Z,4.43
2018-08-20T00:42:45.874Z,5.60
2018-08-20T00:45:12.766Z,5.37
2018-08-20T00:47:42.975Z,4.93
2018-08-20T00:50:12.947Z,4.87
2018-08-20T00:52:39.888Z,5.60
2018-08-20T00:55:09.176Z,4.30
2018-08-20T00:57:36.090Z,4.97
2018-08-20T01:00:03.058Z,5.07
2018-08-20T01:02:31.014Z,4.80
2018-08-20T01:05:01.461Z,4.97
2018-08-20T01:07:29.347Z,5.80
2018-08-20T01:09:57.513Z,4.97
2018-08-20T01:12:25.237Z,4.67
2018-08-20T01:14:53.259Z,5.17
2018-08-20T01:17:21.438Z,5.00
2018-08-20T01:19:48.427Z,4.70
2018-08-20T01:22:15.434Z,4.80
2018-08-20T01:24:45.447Z,5.10
2018-08-20T01:27:17.203Z,4.57
2018-08-20T01:29:44.986Z,5.67
2018-08-20T01:32:11.874Z,5.57
2018-08-20T01:34:43.858Z,5.50
2018-08-20T01:37:13.115Z,5.20
2018-08-20T01:39:40.030Z,5.80
2018-08-20T01:42:07.058Z,5.40
2018-08-20T01:44:35.032Z,5.12
2018-08-20T01:47:02.007Z,5.60
2018-08-20T01:49:28.954Z,5.00
2018-08-20T01:51:58.875Z,4.70
2018-08-20T01:54:26.902Z,5.67
2018-08-20T01:56:58.896Z,4.70
2018-08-20T01:59:27.511Z,5.70
2018-08-20T02:01:54.441Z,4.90
2018-08-20T02:04:21.440Z,5.10
2018-08-20T02:06:52.107Z,5.23
2018-08-20T02:09:21.062Z,5.30
2018-08-20T02:11:49.015Z,5.60
2018-08-20T02:14:17.042Z,5.50
2018-08-20T02:16:45.486Z,5.90
2018-08-20T02:19:12.394Z,4.97
2018-08-20T02:21:39.359Z,5.30
2018-08-20T02:24:06.427Z,5.50
2018-08-20T02:26:33.410Z,5.40
2018-08-20T02:29:00.363Z,6.57
2018-08-20T02:31:28.434Z,5.37
2018-08-20T02:33:56.485Z,6.10
2018-08-20T02:36:24.015Z,5.90
2018-08-20T02:38:51.531Z,5.47
2018-08-20T02:41:18.454Z,5.67
2018-08-20T02:43:47.137Z,6.30
2018-08-20T02:46:14.050Z,6.60
2018-08-20T02:48:45.391Z,6.20
2018-08-20T02:51:12.322Z,6.40
2018-08-20T02:53:40.330Z,6.70
2018-08-20T02:56:07.258Z,5.97
2018-08-20T02:58:35.099Z,6.00
2018-08-20T03:01:08.102Z,5.97
2018-08-20T03:03:38.909Z,6.37
2018-08-20T03:06:05.778Z,5.97
2018-08-20T03:08:33.506Z,5.67
2018-08-20T03:11:07.235Z,5.60
2018-08-20T03:13:37.691Z,5.83
2018-08-20T03:16:05.566Z,5.57
2018-08-20T03:18:32.508Z,5.40
2018-08-20T03:20:59.434Z,6.70
2018-08-20T03:23:26.419Z,6.20
2018-08-20T03:25:54.416Z,6.42
2018-08-20T03:28:22.103Z,6.95
2018-08-20T03:30:49.059Z,6.75
2018-08-20T03:33:16.036Z,6.70
2018-08-20T03:35:42.983Z,6.30
2018-08-20T03:38:15.923Z,6.00
2018-08-20T03:40:43.491Z,6.57
2018-08-20T03:43:10.462Z,6.10
2018-08-20T03:45:41.427Z,6.90
2018-08-20T03:48:14.727Z,7.00
2018-08-20T03:50:42.526Z,5.97
2018-08-20T03:53:09.574Z,6.47
2018-08-20T03:55:39.655Z,6.90
2018-08-20T03:58:07.664Z,6.33
2018-08-20T04:00:34.628Z,6.30
2018-08-20T04:03:01.643Z,6.70
2018-08-20T04:05:28.559Z,6.07
2018-08-20T04:07:57.606Z,5.77
2018-08-20T04:10:27.654Z,6.23
2018-08-20T04:12:54.522Z,5.77
2018-08-20T04:15:35.691Z,6.07
2018-08-20T04:18:11.134Z,5.97
2018-08-20T04:20:38.701Z,6.03
2018-08-20T04:23:05.667Z,6.95
2018-08-20T04:25:33.776Z,6.23
2018-08-20T04:28:02.677Z,5.67
2018-08-20T04:30:30.603Z,6.17
2018-08-20T04:32:58.542Z,6.60
2018-08-20T04:35:26.106Z,5.87
2018-08-20T04:37:53.099Z,6.77
2018-08-20T04:40:28.956Z,6.47
2018-08-20T04:42:57.685Z,6.03
2018-08-20T04:45:24.643Z,6.27
2018-08-20T04:47:53.022Z,6.58
2018-08-20T04:50:20.797Z,5.97
2018-08-20T04:52:53.855Z,6.87
2018-08-20T04:55:22.667Z,6.80
2018-08-20T04:57:50.623Z,5.77
2018-08-20T05:00:18.566Z,5.83
2018-08-20T05:02:46.132Z,6.40
2018-08-20T05:05:13.621Z,6.95
2018-08-20T05:07:40.536Z,6.65
2018-08-20T05:10:13.655Z,6.63
2018-08-20T05:12:41.170Z,5.80
2018-08-20T05:15:12.443Z,7.00
2018-08-20T05:17:44.160Z,5.50
2018-08-20T05:20:14.675Z,6.90
2018-08-20T05:22:42.686Z,6.57
2018-08-20T05:25:12.595Z,6.83
2018-08-20T05:27:41.126Z,6.80
2018-08-20T05:30:10.661Z,6.80
2018-08-20T05:32:40.588Z,6.77
2018-08-20T05:35:13.615Z,6.97
2018-08-20T05:37:43.560Z,5.83
2018-08-20T05:40:15.479Z,7.20
2018-08-20T05:42:43.090Z,7.10
2018-08-20T05:45:13.055Z,6.10
2018-08-20T05:47:43.004Z,7.00
2018-08-20T05:50:09.993Z,6.80
2018-08-20T05:52:47.451Z,6.93
2018-08-20T05:55:17.456Z,6.43
2018-08-20T05:57:49.044Z,6.95
2018-08-20T06:00:17.207Z,8.07
2018-08-20T06:02:47.171Z,6.90
2018-08-20T06:05:15.643Z,6.50
2018-08-20T06:07:47.743Z,7.47
2018-08-20T06:10:20.634Z,6.23
2018-08-20T06:12:50.598Z,6.37
2018-08-20T06:15:24.035Z,6.70
2018-08-20T06:17:57.080Z,7.30
2018-08-20T06:20:24.258Z,7.60
2018-08-20T06:22:51.179Z,6.60
2018-08-20T06:25:18.146Z,7.23
2018-08-20T06:27:45.089Z,6.13
2018-08-20T06:30:15.934Z,6.90
2018-08-20T06:32:44.134Z,6.87
2018-08-20T06:35:11.667Z,6.87
2018-08-20T06:37:38.599Z,7.10
2018-08-20T06:40:07.550Z,7.30
2018-08-20T06:42:34.562Z,7.23
2018-08-20T06:45:01.486Z,7.20
2018-08-20T06:47:28.452Z,6.17
2018-08-20T06:49:55.403Z,7.57
2018-08-20T06:52:22.370Z,6.80
2018-08-20T06:54:49.322Z,7.50
2018-08-20T06:57:16.257Z,6.33
2018-08-20T06:59:43.206Z,8.20
2018-08-20T07:02:10.162Z,7.00
2018-08-20T07:04:37.246Z,7.20
2018-08-20T07:07:04.203Z,7.10
2018-08-20T07:09:31.184Z,6.70
2018-08-20T07:11:58.210Z,6.73
2018-08-20T07:14:25.183Z,7.40
2018-08-20T07:16:52.138Z,6.07
2018-08-20T07:19:26.994Z,6.10
2018-08-20T07:21:53.958Z,6.50
2018-08-20T07:24:20.853Z,6.63
2018-08-20T07:26:47.806Z,5.60
2018-08-20T07:29:19.598Z,6.00
2018-08-20T07:31:46.538Z,6.10
2018-08-20T07:34:13.386Z,7.13
2018-08-20T07:36:40.277Z,6.43
2018-08-20T07:39:07.248Z,6.50
2018-08-20T07:41:34.187Z,5.57
2018-08-20T07:44:01.126Z,6.43
2018-08-20T07:46:28.098Z,7.30
2018-08-20T07:48:56.257Z,6.27
2018-08-20T07:51:23.167Z,6.23
2018-08-20T07:53:50.103Z,6.23
2018-08-20T07:56:16.969Z,6.77
2018-08-20T07:58:43.889Z,5.33
2018-08-20T08:01:10.839Z,6.50
2018-08-20T08:03:37.721Z,6.60
2018-08-20T08:06:05.171Z,7.20
2018-08-20T08:08:32.272Z,6.10
2018-08-20T08:10:59.144Z,6.13
2018-08-20T08:13:26.095Z,5.70
2018-08-20T08:15:53.049Z,7.57
2018-08-20T08:18:19.985Z,6.30
2018-08-20T08:20:46.922Z,5.80
2018-08-20T08:23:13.915Z,6.67
2018-08-20T08:25:40.867Z,7.07
2018-08-20T08:28:07.811Z,6.63
2018-08-20T08:30:34.754Z,6.13
2018-08-20T08:33:01.756Z,6.50
2018-08-20T08:35:28.710Z,7.10
2018-08-20T08:37:55.672Z,6.30
2018-08-20T08:40:22.587Z,5.77
2018-08-20T08:42:49.547Z,6.70
2018-08-20T08:45:17.646Z,6.40
2018-08-20T08:47:45.038Z,7.37
2018-08-20T08:50:12.478Z,6.30
2018-08-20T08:52:39.438Z,5.80
2018-08-20T08:55:06.698Z,6.37
2018-08-20T08:57:33.865Z,5.80
2018-08-20T09:00:00.830Z,5.97
2018-08-20T09:02:27.836Z,6.60
2018-08-20T09:04:54.802Z,6.33
2018-08-20T09:07:21.703Z,5.90
2018-08-20T09:09:48.650Z,6.07
2018-08-20T09:12:15.614Z,5.20
2018-08-20T09:14:42.617Z,5.67
2018-08-20T09:17:09.538Z,6.17
2018-08-20T09:19:36.512Z,6.00
2018-08-20T09:22:03.477Z,5.70
2018-08-20T09:24:31.237Z,5.60
2018-08-20T09:26:58.231Z,5.87
2018-08-20T09:29:25.143Z,6.40
2018-08-20T09:31:52.089Z,5.90
2018-08-20T09:34:19.058Z,5.40
2018-08-20T09:36:46.006Z,5.30
2018-08-20T09:39:12.974Z,5.30
2018-08-20T09:41:39.957Z,6.30
2018-08-20T09:44:06.906Z,5.57
2018-08-20T09:46:33.799Z,5.00
2018-08-20T09:49:00.730Z,5.30
2018-08-20T09:51:27.670Z,4.57
2018-08-20T09:53:54.634Z,4.40
2018-08-20T09:56:21.554Z,4.60
2018-08-20T09:58:48.538Z,4.17
2018-08-20T10:01:15.499Z,5.70
2018-08-20T10:03:44.794Z,4.73
2018-08-20T10:06:12.271Z,5.20
2018-08-20T10:08:39.768Z,4.67
2018-08-20T10:11:06.823Z,4.73
2018-08-20T10:13:34.735Z,4.80
2018-08-20T10:16:01.630Z,5.03
2018-08-20T10:18:28.595Z,4.93
2018-08-20T10:20:55.550Z,4.50
2018-08-20T10:23:22.510Z,3.60
2018-08-20T10:25:49.485Z,4.80
2018-08-20T10:28:16.454Z,4.03
2018-08-20T10:30:43.665Z,4.03
2018-08-20T10:33:10.614Z,4.00
2018-08-20T10:35:37.524Z,4.63
2018-08-20T10:38:05.597Z,4.23
2018-08-20T10:40:32.538Z,4.00
2018-08-20T10:42:59.511Z,3.80
2018-08-20T10:45:32.115Z,3.60
2018-08-20T10:47:59.040Z,3.90
2018-08-20T10:50:25.986Z,4.40
2018-08-20T10:52:52.954Z,4.13
2018-08-20T10:55:19.919Z,4.23
2018-08-20T10:57:48.914Z,3.67
2018-08-20T11:00:16.110Z,3.70
2018-08-20T11:02:43.103Z,3.70
2018-08-20T11:05:12.604Z,3.93
2018-08-20T11:07:39.631Z,3.97
2018-08-20T11:10:06.665Z,3.90
2018-08-20T11:12:33.515Z,4.50
2018-08-20T11:15:00.490Z,4.43
2018-08-20T11:17:27.364Z,4.30
2018-08-20T11:19:54.308Z,4.57
2018-08-20T11:22:21.311Z,4.00
2018-08-20T11:24:48.214Z,3.80
2018-08-20T11:27:15.074Z,4.50
2018-08-20T11:29:41.948Z,3.70
2018-08-20T11:32:09.140Z,4.10
2018-08-20T11:34:36.291Z,5.12
2018-08-20T11:37:03.210Z,4.63
2018-08-20T11:39:30.170Z,3.53
2018-08-20T11:41:57.196Z,4.23
2018-08-20T11:44:24.825Z,3.53
2018-08-20T11:46:51.777Z,4.30
2018-08-20T11:49:18.748Z,4.20
2018-08-20T11:51:45.670Z,3.70
2018-08-20T11:54:12.654Z,4.10
2018-08-20T11:56:39.794Z,4.50
2018-08-20T11:59:06.847Z,4.30
2018-08-20T12:01:34.315Z,4.07
2018-08-20T12:04:01.403Z,4.17
2018-08-20T12:06:28.344Z,4.10
2018-08-20T12:08:55.262Z,3.40
2018-08-20T12:11:22.170Z,3.70
2018-08-20T12:13:49.462Z,3.67
2018-08-20T12:16:16.369Z,3.77
2018-08-20T12:18:43.343Z,3.63
2018-08-20T12:21:10.527Z,3.37
2018-08-20T12:23:37.439Z,3.27
2018-08-20T12:26:04.401Z,3.53
2018-08-20T12:28:33.410Z,2.80
2018-08-20T12:31:00.985Z,3.03
2018-08-20T12:33:27.843Z,2.77
2018-08-20T12:35:54.806Z,2.80
2018-08-20T12:38:21.793Z,2.70
2018-08-20T12:40:48.713Z,2.77
2018-08-20T12:43:16.364Z,2.83
2018-08-20T12:45:45.290Z,2.60
2018-08-20T12:48:16.550Z,3.00
2018-08-20T12:50:46.510Z,3.37
2018-08-20T12:53:13.442Z,2.60
2018-08-20T12:55:42.470Z,2.87
2018-08-20T12:58:09.579Z,3.00
2018-08-20T13:00:36.539Z,2.87
2018-08-20T13:03:03.419Z,3.30
2018-08-20T13:05:30.358Z,2.60
2018-08-20T13:07:57.846Z,3.30
2018-08-20T13:10:24.794Z,2.70
2018-08-20T13:12:51.766Z,2.93
2018-08-20T13:15:18.682Z,3.23
2018-08-20T13:17:48.611Z,3.07
2018-08-20T13:20:15.540Z,2.50
2018-08-20T13:22:42.447Z,2.50
2018-08-20T13:25:09.506Z,2.60
2018-08-20T13:27:36.498Z,2.43
2018-08-20T13:30:08.037Z,2.73
2018-08-20T13:32:35.041Z,2.20
2018-08-20T13:35:01.967Z,3.00
2018-08-20T13:37:28.967Z,2.50
2018-08-20T13:39:55.873Z,3.03
2018-08-20T13:42:23.452Z,2.60
2018-08-20T13:44:50.412Z,2.03
2018-08-20T13:47:17.322Z,2.23
2018-08-20T13:49:44.542Z,2.10
2018-08-20T13:52:11.478Z,2.37
2018-08-20T13:54:38.446Z,2.37
2018-08-20T13:57:05.434Z,2.50
2018-08-20T13:59:32.354Z,2.40
2018-08-20T14:01:59.217Z,2.50
2018-08-20T14:04:26.166Z,2.57
2018-08-20T14:06:53.126Z,2.70
2018-08-20T14:09:20.043Z,2.43
2018-08-20T14:11:46.938Z,2.93
2018-08-20T14:14:13.890Z,2.50
2018-08-20T14:16:40.788Z,2.87
2018-08-20T14:19:07.667Z,2.50
2018-08-20T14:21:34.553Z,2.43
2018-08-20T14:24:01.515Z,2.23
2018-08-20T14:26:28.486Z,2.97
2018-08-20T14:28:55.436Z,2.67
2018-08-20T14:31:22.370Z,2.50
2018-08-20T14:33:50.914Z,2.93
2018-08-20T14:36:17.842Z,2.47
2018-08-20T14:38:44.809Z,2.47
2018-08-20T14:41:12.458Z,2.43
2018-08-20T14:43:39.442Z,2.27
2018-08-20T14:46:12.079Z,2.80
2018-08-20T14:48:39.003Z,2.53
2018-08-20T14:51:05.848Z,2.20
2018-08-20T14:53:33.589Z,1.93
2018-08-20T14:56:00.478Z,2.30
2018-08-20T14:58:27.418Z,2.13
2018-08-20T15:00:54.390Z,2.50
2018-08-20T15:03:21.343Z,2.50
2018-08-20T15:05:48.336Z,2.30
2018-08-20T15:08:15.306Z,2.27
2018-08-20T15:10:42.212Z,2.40
2018-08-20T15:13:09.214Z,2.33
2018-08-20T15:15:36.220Z,2.30
2018-08-20T15:18:03.924Z,2.23
2018-08-20T15:20:30.830Z,2.43
2018-08-20T15:22:57.709Z,2.67
2018-08-20T15:25:24.672Z,2.70
2018-08-20T15:27:51.541Z,2.27
2018-08-20T15:30:18.490Z,2.40
2018-08-20T15:32:45.511Z,1.70
2018-08-20T15:35:12.413Z,2.30
2018-08-20T15:37:39.409Z,2.33
2018-08-20T15:40:06.310Z,1.93
2018-08-20T15:42:33.378Z,1.87
2018-08-20T15:45:00.575Z,1.90
2018-08-20T15:47:27.497Z,1.93
2018-08-20T15:49:54.442Z,2.20
2018-08-20T15:52:21.409Z,1.70
2018-08-20T15:54:48.382Z,2.17
2018-08-20T15:57:15.313Z,1.70
2018-08-20T15:59:42.286Z,1.60
2018-08-20T16:02:09.381Z,1.63
2018-08-20T16:04:36.291Z,1.50
2018-08-20T16:07:03.366Z,2.30
2018-08-20T16:09:30.327Z,1.87
2018-08-20T16:11:57.281Z,2.43
2018-08-20T16:14:25.084Z,2.00
2018-08-20T16:16:54.570Z,2.33
2018-08-20T16:19:21.504Z,2.07
2018-08-20T16:21:48.494Z,2.03
2018-08-20T16:24:15.485Z,1.80
2018-08-20T16:26:42.421Z,1.80
2018-08-20T16:29:09.383Z,1.93
2018-08-20T16:31:36.410Z,2.50
2018-08-20T16:34:03.402Z,2.00
2018-08-20T16:36:31.345Z,1.97
2018-08-20T16:38:59.041Z,2.30
2018-08-20T16:41:25.962Z,2.07
2018-08-20T16:43:52.949Z,2.00
2018-08-20T16:46:21.090Z,2.23
2018-08-20T16:48:48.508Z,2.43
2018-08-20T16:51:15.450Z,2.27
2018-08-20T16:53:43.430Z,2.03
2018-08-20T16:56:11.445Z,1.97
2018-08-20T16:58:38.398Z,2.43
2018-08-20T17:01:12.042Z,2.50
2018-08-20T17:03:38.914Z,2.40
2018-08-20T17:06:05.800Z,2.10
2018-08-20T17:08:32.741Z,2.00
2018-08-20T17:11:00.034Z,2.40
2018-08-20T17:13:26.973Z,1.90
2018-08-20T17:15:53.939Z,2.73
2018-08-20T17:18:20.900Z,2.30
2018-08-20T17:20:47.854Z,2.20
2018-08-20T17:23:20.893Z,2.10
2018-08-20T17:25:47.826Z,2.50
2018-08-20T17:28:18.805Z,2.57
2018-08-20T17:30:45.726Z,2.30
2018-08-20T17:33:12.698Z,2.40
2018-08-20T17:35:41.247Z,2.27
2018-08-20T17:38:08.203Z,2.60
2018-08-20T17:40:36.345Z,2.67
2018-08-20T17:43:03.279Z,2.80
2018-08-20T17:45:31.923Z,2.30
2018-08-20T17:47:59.189Z,2.73
2018-08-20T17:50:40.434Z,2.60
2018-08-20T17:53:08.219Z,2.87
2018-08-20T17:55:35.309Z,3.00
2018-08-20T17:58:02.268Z,3.70
2018-08-20T18:00:39.451Z,3.20
2018-08-20T18:03:22.151Z,3.33
2018-08-20T18:05:50.978Z,3.60
2018-08-20T18:08:22.614Z,2.90
2018-08-20T18:10:50.369Z,3.13
2018-08-20T18:13:31.790Z,3.57
2018-08-20T18:16:00.837Z,3.10
2018-08-20T18:18:29.183Z,3.10
2018-08-20T18:20:58.394Z,3.30
2018-08-20T18:23:25.288Z,3.03
2018-08-20T18:25:53.155Z,3.13
2018-08-20T18:28:20.103Z,3.13
2018-08-20T18:30:50.619Z,2.90
2018-08-20T18:33:21.211Z,3.07
2018-08-20T18:35:55.687Z,3.17
2018-08-20T18:38:23.647Z,3.17
2018-08-20T18:40:51.611Z,2.90
2018-08-20T18:43:20.192Z,3.08
2018-08-20T18:45:48.686Z,2.80
2018-08-20T18:48:22.490Z,3.07
2018-08-20T18:50:50.282Z,2.97
2018-08-20T18:53:18.971Z,3.30
2018-08-20T18:55:59.375Z,2.90
2018-08-20T18:58:29.939Z,2.90
2018-08-20T19:00:57.852Z,3.07
2018-08-20T19:03:25.738Z,2.90
2018-08-20T19:05:53.779Z,3.40
2018-08-20T19:08:24.393Z,2.67
2018-08-20T19:10:51.335Z,3.20
2018-08-20T19:13:18.307Z,2.80
2018-08-20T19:15:52.690Z,2.70
2018-08-20T19:18:22.011Z,3.20
2018-08-20T19:20:49.046Z,2.93
2018-08-20T19:23:16.002Z,3.07
2018-08-20T19:25:43.015Z,3.80
2018-08-20T19:28:29.170Z,3.20
2018-08-20T19:30:56.305Z,3.20
2018-08-20T19:33:25.567Z,2.80
2018-08-20T19:35:53.148Z,2.70
2018-08-20T19:38:20.106Z,3.20
2018-08-20T19:40:58.406Z,2.90
2018-08-20T19:43:26.630Z,3.13
2018-08-20T19:46:00.900Z,3.10
2018-08-20T19:48:27.802Z,3.00
2018-08-20T19:50:54.767Z,3.30
2018-08-20T19:53:24.174Z,3.20
2018-08-20T19:55:51.943Z,3.17
2018-08-20T19:58:24.754Z,3.40
2018-08-20T20:01:03.291Z,3.20
2018-08-20T20:03:31.350Z,3.53
2018-08-20T20:05:58.315Z,2.90
2018-08-20T20:08:25.275Z,3.50
2018-08-20T20:10:52.253Z,2.87
2018-08-20T20:13:19.185Z,2.90
2018-08-20T20:15:50.328Z,2.77
2018-08-20T20:18:17.372Z,2.60
2018-08-20T20:20:44.254Z,2.87
2018-08-20T20:23:11.233Z,2.50
2018-08-20T20:25:38.187Z,2.77
2018-08-20T20:28:05.794Z,3.20
2018-08-20T20:30:32.678Z,2.90
2018-08-20T20:32:59.654Z,2.60
2018-08-20T20:35:26.621Z,3.30
2018-08-20T20:37:53.583Z,3.00
2018-08-20T20:40:20.527Z,2.97
2018-08-20T20:42:47.642Z,3.10
2018-08-20T20:45:15.561Z,2.67
2018-08-20T20:47:43.133Z,2.90
2018-08-20T20:50:10.161Z,2.90
2018-08-20T20:52:37.097Z,2.70
2018-08-20T20:55:04.798Z,3.23
2018-08-20T20:57:31.701Z,3.27
2018-08-20T20:59:59.378Z,3.30
2018-08-20T21:02:26.282Z,3.40
2018-08-20T21:04:57.542Z,3.07
2018-08-20T21:07:29.134Z,3.50
2018-08-20T21:09:57.046Z,3.43
2018-08-20T21:12:23.942Z,3.83
2018-08-20T21:14:50.835Z,3.83
2018-08-20T21:17:18.706Z,3.50
2018-08-20T21:19:46.308Z,4.10
2018-08-20T21:22:13.139Z,3.57
2018-08-20T21:24:40.686Z,3.80
2018-08-20T21:27:13.611Z,4.03
2018-08-20T21:29:40.918Z,3.60
2018-08-20T21:32:07.834Z,3.70
2018-08-20T21:34:38.818Z,3.53
2018-08-20T21:37:05.811Z,3.27
2018-08-20T21:39:32.710Z,3.20
2018-08-20T21:41:59.654Z,4.33
2018-08-20T21:44:26.613Z,3.37
2018-08-20T21:46:53.533Z,4.10
2018-08-20T21:49:21.253Z,3.23
2018-08-20T21:51:56.594Z,4.40
2018-08-20T21:54:29.288Z,3.60
2018-08-20T21:56:56.222Z,3.60
2018-08-20T21:59:23.218Z,3.60
2018-08-20T22:01:50.174Z,4.23
2018-08-20T22:04:19.173Z,3.80
2018-08-20T22:06:46.326Z,4.20
2018-08-20T22:09:13.291Z,3.70
2018-08-20T22:11:40.254Z,3.70
2018-08-20T22:14:07.203Z,3.80
2018-08-20T22:16:37.741Z,3.70
2018-08-20T22:19:05.174Z,3.77
2018-08-20T22:21:32.094Z,4.30
2018-08-20T22:24:00.346Z,3.83
2018-08-20T22:26:29.369Z,3.63
2018-08-20T22:28:56.826Z,3.40
2018-08-20T22:31:23.795Z,3.30
2018-08-20T22:33:57.661Z,3.40
2018-08-20T22:36:25.178Z,4.07
2018-08-20T22:38:54.179Z,4.33
2018-08-20T22:41:23.397Z,3.90
2018-08-20T22:43:50.659Z,3.67
2018-08-20T22:46:18.338Z,3.80
2018-08-20T22:48:46.518Z,3.67
2018-08-20T22:51:14.766Z,3.80
2018-08-20T22:53:45.599Z,4.00
2018-08-20T22:56:19.254Z,3.43
2018-08-20T22:58:46.245Z,3.67
2018-08-20T23:01:13.186Z,3.90
2018-08-20T23:03:41.065Z,3.90
2018-08-20T23:06:08.014Z,3.73
2018-08-20T23:08:34.982Z,3.93
2018-08-20T23:11:01.942Z,3.87
2018-08-20T23:13:29.052Z,4.27
2018-08-20T23:15:56.136Z,4.30
2018-08-20T23:18:23.202Z,3.90
2018-08-20T23:20:50.174Z,4.30
2018-08-20T23:23:27.066Z,4.17
2018-08-20T23:25:59.818Z,3.80
2018-08-20T23:28:26.739Z,3.90
2018-08-20T23:31:01.258Z,4.17
2018-08-20T23:33:28.846Z,4.50
2018-08-20T23:35:55.786Z,4.23
2018-08-20T23:38:22.721Z,4.37
2018-08-20T23:40:49.710Z,3.97
2018-08-20T23:43:16.682Z,4.30
2018-08-20T23:45:43.618Z,4.50
2018-08-20T23:48:10.542Z,4.20
2018-08-20T23:50:37.525Z,4.30
2018-08-20T23:53:04.486Z,3.80
2018-08-20T23:55:31.450Z,4.33
2018-08-20T23:57:58.370Z,3.70
